createdAt,value
2022-10-01T00:00:03.249Z,100467.27
2022-10-01T00:02:55.751Z,100472.18
2022-10-01T00:05:27.620Z,100469.85
2022-10-01T00:07:59.352Z,100466.20
2022-10-01T00:10:32.876Z,100469.73
2022-10-01T00:13:05.016Z,100473.20
2022-10-01T00:15:36.718Z,100476.48
2022-10-01T00:18:09.111Z,100478.03
2022-10-01T00:20:43.592Z,100476.70
2022-10-01T00:23:16.803Z,100475.80
2022-10-01T00:25:49.679Z,100477.86
2022-10-01T00:28:21.777Z,100477.38
2022-10-01T00:30:53.718Z,100477.39
2022-10-01T00:33:25.469Z,100484.05
2022-10-01T00:35:57.878Z,100481.05
2022-10-01T00:38:30.031Z,100483.04
2022-10-01T00:41:01.801Z,100485.27
2022-10-01T00:43:34.933Z,100486.48
2022-10-01T00:46:11.112Z,100490.33
2022-10-01T00:48:47.814Z,100495.62
2022-10-01T00:51:21.193Z,100497.72
2022-10-01T00:53:52.974Z,100496.18
2022-10-01T00:56:25.006Z,100497.75
2022-10-01T00:58:57.129Z,100495.30
2022-10-01T01:01:29.207Z,100492.08
2022-10-01T01:04:01.631Z,100481.80
2022-10-01T01:06:33.465Z,100476.93
2022-10-01T01:09:05.203Z,100474.91
2022-10-01T01:11:43.427Z,100473.02
2022-10-01T01:14:19.300Z,100476.28
2022-10-01T01:16:53.459Z,100473.13
2022-10-01T01:19:34.923Z,100471.80
2022-10-01T01:22:08.449Z,100471.17
2022-10-01T01:24:49.091Z,100477.05
2022-10-01T01:27:29.480Z,100482.54
2022-10-01T01:30:05.358Z,100477.94
2022-10-01T01:32:46.685Z,100479.39
2022-10-01T01:35:22.312Z,100481.09
2022-10-01T01:37:56.479Z,100481.70
2022-10-01T01:40:29.643Z,100480.02
2022-10-01T01:43:02.215Z,100484.23
2022-10-01T01:45:35.711Z,100483.67
2022-10-01T01:48:09.317Z,100489.40
2022-10-01T01:50:46.445Z,100491.86
2022-10-01T01:53:18.395Z,100493.16
2022-10-01T01:55:51.359Z,100495.58
2022-10-01T01:58:24.360Z,100497.27
2022-10-01T02:00:56.430Z,100491.92
2022-10-01T02:03:29.501Z,100497.56
2022-10-01T02:06:09.454Z,100502.40
2022-10-01T02:08:44.179Z,100505.16
2022-10-01T02:11:26.948Z,100507.91
2022-10-01T02:14:08.225Z,100506.66
2022-10-01T02:16:48.265Z,100507.90
2022-10-01T02:19:27.665Z,100506.66
2022-10-01T02:22:02.211Z,100503.31
2022-10-01T02:24:41.397Z,100504.05
2022-10-01T02:27:17.369Z,100506.08
2022-10-01T02:29:49.762Z,100511.95
2022-10-01T02:32:22.084Z,100513.15
2022-10-01T02:34:55.703Z,100509.27
2022-10-01T02:37:29.158Z,100501.74
2022-10-01T02:40:02.414Z,100502.23
2022-10-01T02:42:35.927Z,100501.40
2022-10-01T02:45:09.396Z,100496.38
2022-10-01T02:47:44.534Z,100493.11
2022-10-01T02:50:17.039Z,100485.58
2022-10-01T02:52:53.825Z,100482.17
2022-10-01T02:55:29.798Z,100476.44
2022-10-01T02:58:01.542Z,100473.40
2022-10-01T03:00:33.710Z,100474.48
2022-10-01T03:03:05.461Z,100478.61
2022-10-01T03:05:37.315Z,100477.56
2022-10-01T03:08:09.305Z,100474.88
2022-10-01T03:10:44.709Z,100471.07
2022-10-01T03:13:19.929Z,100463.30
2022-10-01T03:15:51.734Z,100462.31
2022-10-01T03:18:23.572Z,100457.73
2022-10-01T03:20:55.233Z,100448.59
2022-10-01T03:23:27.017Z,100432.29
2022-10-01T03:25:58.662Z,100430.83
2022-10-01T03:28:30.502Z,100429.95
2022-10-01T03:31:09.894Z,100432.95
2022-10-01T03:33:41.707Z,100430.22
2022-10-01T03:36:13.354Z,100430.70
2022-10-01T03:38:45.180Z,100435.95
2022-10-01T03:41:16.800Z,100431.66
2022-10-01T03:43:48.625Z,100425.95
2022-10-01T03:46:20.310Z,100432.37
2022-10-01T03:48:52.265Z,100442.21
2022-10-01T03:51:23.940Z,100448.64
2022-10-01T03:53:56.708Z,100451.90
2022-10-01T03:56:28.446Z,100452.88
2022-10-01T03:59:00.265Z,100460.44
2022-10-01T04:01:32.447Z,100466.94
2022-10-01T04:04:05.369Z,100467.97
2022-10-01T04:06:37.279Z,100470.17
2022-10-01T04:09:09.827Z,100463.84
2022-10-01T04:11:41.563Z,100465.44
2022-10-01T04:14:13.423Z,100470.66
2022-10-01T04:16:45.368Z,100469.35
2022-10-01T04:19:17.562Z,100472.02
2022-10-01T04:21:49.635Z,100470.98
2022-10-01T04:24:21.572Z,100469.07
2022-10-01T04:26:54.829Z,100463.05
2022-10-01T04:29:26.811Z,100462.36
2022-10-01T04:31:58.882Z,100461.86
2022-10-01T04:34:44.753Z,100463.80
2022-10-01T04:37:16.795Z,100463.20
2022-10-01T04:39:48.902Z,100462.38
2022-10-01T04:42:20.930Z,100462.77
2022-10-01T04:44:52.981Z,100461.05
2022-10-01T04:47:24.799Z,100458.66
2022-10-01T04:49:56.629Z,100457.21
2022-10-01T04:52:28.821Z,100451.52
2022-10-01T04:55:01.469Z,100448.48
2022-10-01T04:57:33.258Z,100447.86
2022-10-01T05:00:06.427Z,100449.55
2022-10-01T05:02:38.160Z,100454.20
2022-10-01T05:05:11.380Z,100454.55
2022-10-01T05:07:44.496Z,100452.84
2022-10-01T05:10:18.292Z,100450.26
2022-10-01T05:12:52.098Z,100450.03
2022-10-01T05:15:24.222Z,100448.13
2022-10-01T05:17:55.943Z,100451.30
2022-10-01T05:20:29.282Z,100452.33
2022-10-01T05:23:01.028Z,100454.67
2022-10-01T05:25:33.393Z,100450.92
2022-10-01T05:28:06.039Z,100456.54
2022-10-01T05:30:38.347Z,100457.05
2022-10-01T05:33:10.040Z,100457.35
2022-10-01T05:35:43.106Z,100462.58
2022-10-01T05:38:14.983Z,100461.00
2022-10-01T05:40:49.066Z,100458.29
2022-10-01T05:43:19.219Z,100457.52
2022-10-01T05:45:51.383Z,100460.52
2022-10-01T05:48:23.132Z,100459.17
2022-10-01T05:50:55.224Z,100460.95
2022-10-01T05:53:27.692Z,100464.20
2022-10-01T05:56:03.130Z,100466.47
2022-10-01T05:58:35.337Z,100462.20
2022-10-01T06:01:07.547Z,100460.23
2022-10-01T06:03:39.297Z,100462.22
2022-10-01T06:06:11.210Z,100466.10
2022-10-01T06:08:47.284Z,100465.23
2022-10-01T06:11:19.815Z,100466.77
2022-10-01T06:13:51.565Z,100468.19
2022-10-01T06:16:23.308Z,100467.09
2022-10-01T06:18:57.839Z,100465.50
2022-10-01T06:21:30.751Z,100464.16
2022-10-01T06:24:02.894Z,100460.45
2022-10-01T06:26:34.731Z,100455.87
2022-10-01T06:29:06.485Z,100457.66
2022-10-01T06:31:38.970Z,100455.58
2022-10-01T06:34:10.940Z,100459.44
2022-10-01T06:36:42.896Z,100457.41
2022-10-01T06:39:14.948Z,100454.94
2022-10-01T06:41:48.490Z,100454.66
2022-10-01T06:44:20.787Z,100453.70
2022-10-01T06:46:54.336Z,100453.85
2022-10-01T06:49:26.985Z,100455.09
2022-10-01T06:52:16.506Z,100456.92
2022-10-01T06:54:48.283Z,100452.70
2022-10-01T06:57:20.084Z,100452.35
2022-10-01T06:59:52.410Z,100448.80
2022-10-01T07:02:28.197Z,100446.73
2022-10-01T07:05:00.050Z,100445.75
2022-10-01T07:07:35.160Z,100446.63
2022-10-01T07:10:09.072Z,100444.41
2022-10-01T07:12:39.742Z,100440.89
2022-10-01T07:15:12.259Z,100445.55
2022-10-01T07:17:48.468Z,100446.91
2022-10-01T07:20:21.454Z,100450.70
2022-10-01T07:22:59.527Z,100444.85
2022-10-01T07:25:31.530Z,100443.27
2022-10-01T07:28:05.491Z,100443.16
2022-10-01T07:30:40.628Z,100441.00
2022-10-01T07:33:13.418Z,100443.30
2022-10-01T07:35:48.892Z,100443.48
2022-10-01T07:38:20.702Z,100441.54
2022-10-01T07:40:55.052Z,100439.98
2022-10-01T07:43:26.836Z,100440.10
2022-10-01T07:46:00.286Z,100439.89
2022-10-01T07:48:32.317Z,100437.05
2022-10-01T07:51:04.328Z,100434.66
2022-10-01T07:53:36.858Z,100439.81
2022-10-01T07:56:08.689Z,100437.15
2022-10-01T07:58:42.309Z,100438.63
2022-10-01T08:01:13.888Z,100440.45
2022-10-01T08:03:45.927Z,100446.05
2022-10-01T08:06:21.935Z,100446.65
2022-10-01T08:08:56.472Z,100443.70
2022-10-01T08:11:28.126Z,100448.66
2022-10-01T08:13:59.994Z,100446.55
2022-10-01T08:16:33.784Z,100444.88
2022-10-01T08:19:04.161Z,100442.27
2022-10-01T08:21:36.847Z,100438.34
2022-10-01T08:24:09.370Z,100430.81
2022-10-01T08:26:41.163Z,100430.16
2022-10-01T08:29:16.935Z,100421.88
2022-10-01T08:31:49.365Z,100419.16
2022-10-01T08:34:21.575Z,100418.33
2022-10-01T08:36:54.762Z,100418.86
2022-10-01T08:39:26.828Z,100417.60
2022-10-01T08:42:06.464Z,100415.05
2022-10-01T08:44:42.378Z,100404.26
2022-10-01T08:47:19.847Z,100401.34
2022-10-01T08:49:54.946Z,100395.48
2022-10-01T08:52:29.825Z,100395.23
2022-10-01T08:55:03.393Z,100395.53
2022-10-01T08:57:39.274Z,100391.66
2022-10-01T09:00:15.215Z,100391.56
2022-10-01T09:02:47.858Z,100394.17
2022-10-01T09:05:25.486Z,100392.23
2022-10-01T09:08:05.412Z,100388.59
2022-10-01T09:10:45.804Z,100387.89
2022-10-01T09:13:34.081Z,100381.32
2022-10-01T09:16:13.614Z,100377.50
2022-10-01T09:18:58.253Z,100369.09
2022-10-01T09:21:41.401Z,100368.99
2022-10-01T09:24:16.854Z,100367.48
2022-10-01T09:26:49.958Z,100365.11
2022-10-01T09:29:26.902Z,100365.15
2022-10-01T09:31:59.216Z,100365.63
2022-10-01T09:34:34.360Z,100367.43
2022-10-01T09:37:14.914Z,100362.31
2022-10-01T09:39:55.053Z,100364.65
2022-10-01T09:42:29.048Z,100365.16
2022-10-01T09:45:00.882Z,100368.74
2022-10-01T09:47:35.365Z,100369.43
2022-10-01T09:50:11.124Z,100368.38
2022-10-01T09:52:43.805Z,100372.71
2022-10-01T09:55:26.972Z,100369.70
2022-10-01T09:58:03.534Z,100368.21
2022-10-01T10:00:35.330Z,100364.95
2022-10-01T10:03:07.577Z,100361.52
2022-10-01T10:05:49.593Z,100358.50
2022-10-01T10:08:26.944Z,100358.62
2022-10-01T10:11:01.557Z,100353.11
2022-10-01T10:13:39.126Z,100349.06
2022-10-01T10:16:17.160Z,100346.04
2022-10-01T10:18:52.347Z,100343.33
2022-10-01T10:21:26.877Z,100349.06
2022-10-01T10:24:00.292Z,100349.53
2022-10-01T10:26:33.868Z,100345.70
2022-10-01T10:29:08.445Z,100337.44
2022-10-01T10:31:44.252Z,100336.60
2022-10-01T10:34:19.132Z,100328.09
2022-10-01T10:36:53.380Z,100322.34
2022-10-01T10:39:29.472Z,100317.95
2022-10-01T10:42:02.397Z,100312.33
2022-10-01T10:44:38.964Z,100306.02
2022-10-01T10:47:14.928Z,100303.61
2022-10-01T10:49:48.754Z,100305.48
2022-10-01T10:52:30.895Z,100295.09
2022-10-01T10:55:04.554Z,100292.13
2022-10-01T10:57:38.043Z,100291.59
2022-10-01T11:00:16.796Z,100282.75
2022-10-01T11:02:55.822Z,100279.77
2022-10-01T11:05:30.251Z,100280.72
2022-10-01T11:08:04.207Z,100278.83
2022-10-01T11:10:46.178Z,100273.38
2022-10-01T11:13:42.380Z,100270.77
2022-10-01T11:16:27.842Z,100258.66
2022-10-01T11:19:07.852Z,100254.59
2022-10-01T11:21:55.443Z,100254.45
2022-10-01T11:24:43.703Z,100250.56
2022-10-01T11:27:24.509Z,100247.57
2022-10-01T11:30:03.524Z,100248.70
2022-10-01T11:32:41.567Z,100239.24
2022-10-01T11:35:40.616Z,100231.88
2022-10-01T11:38:40.074Z,100221.63
2022-10-01T11:41:23.812Z,100214.20
2022-10-01T11:43:58.895Z,100210.93
2022-10-01T11:46:43.093Z,100203.87
2022-10-01T11:49:37.310Z,100197.61
2022-10-01T11:52:15.889Z,100192.66
2022-10-01T11:54:57.618Z,100185.13
2022-10-01T11:57:46.309Z,100178.73
2022-10-01T12:00:18.145Z,100172.36
2022-10-01T12:02:54.070Z,100170.70
2022-10-01T12:05:28.799Z,100170.80
2022-10-01T12:08:07.346Z,100166.21
2022-10-01T12:10:44.438Z,100168.33
2022-10-01T12:13:22.901Z,100158.80
2022-10-01T12:15:59.040Z,100153.23
2022-10-01T12:18:34.492Z,100151.31
2022-10-01T12:21:13.232Z,100150.41
2022-10-01T12:23:47.493Z,100148.90
2022-10-01T12:26:23.760Z,100149.55
2022-10-01T12:29:00.531Z,100147.09
2022-10-01T12:31:39.781Z,100147.96
2022-10-01T12:34:16.474Z,100144.37
2022-10-01T12:36:55.971Z,100137.13
2022-10-01T12:39:37.689Z,100131.77
2022-10-01T12:42:20.869Z,100127.97
2022-10-01T12:45:02.651Z,100124.80
2022-10-01T12:47:42.205Z,100122.17
2022-10-01T12:50:26.548Z,100122.13
2022-10-01T12:53:16.633Z,100115.93
2022-10-01T12:56:01.092Z,100115.29
2022-10-01T12:58:46.777Z,100103.83
2022-10-01T13:01:28.401Z,100099.59
2022-10-01T13:04:24.535Z,100091.98
2022-10-01T13:07:05.627Z,100083.35
2022-10-01T13:09:48.665Z,100085.13
2022-10-01T13:12:34.385Z,100082.09
2022-10-01T13:15:07.016Z,100086.98
2022-10-01T13:17:43.292Z,100086.96
2022-10-01T13:20:18.408Z,100085.91
2022-10-01T13:22:54.934Z,100080.92
2022-10-01T13:25:33.765Z,100081.35
2022-10-01T13:28:13.652Z,100079.17
2022-10-01T13:30:56.036Z,100076.04
2022-10-01T13:33:29.333Z,100074.29
2022-10-01T13:36:02.803Z,100074.95
2022-10-01T13:38:44.130Z,100070.62
2022-10-01T13:41:22.635Z,100065.23
2022-10-01T13:43:58.323Z,100069.98
2022-10-01T13:46:33.248Z,100065.79
2022-10-01T13:49:09.388Z,100062.18
2022-10-01T13:51:41.881Z,100058.95
2022-10-01T13:54:27.823Z,100055.92
2022-10-01T13:57:10.212Z,100051.00
2022-10-01T13:59:43.637Z,100048.45
2022-10-01T14:02:32.018Z,100052.24
2022-10-01T14:05:23.975Z,100050.23
2022-10-01T14:08:11.493Z,100048.19
2022-10-01T14:11:06.459Z,100041.82
2022-10-01T14:14:03.534Z,100031.61
2022-10-01T14:16:39.149Z,100031.34
2022-10-01T14:19:11.658Z,100023.55
2022-10-01T14:21:53.518Z,100019.92
2022-10-01T14:24:31.871Z,100011.95
2022-10-01T14:27:09.604Z,100013.81
2022-10-01T14:29:50.254Z,100012.55
2022-10-01T14:32:30.283Z,100012.91
2022-10-01T14:35:20.828Z,100010.34
2022-10-01T14:37:52.833Z,100006.61
2022-10-01T14:40:25.610Z,100009.66
2022-10-01T14:43:02.282Z,100006.13
2022-10-01T14:45:34.313Z,99999.29
2022-10-01T14:48:07.889Z,99996.83
2022-10-01T14:50:40.356Z,99994.76
2022-10-01T14:53:16.034Z,99995.61
2022-10-01T14:55:49.384Z,99991.52
2022-10-01T14:58:26.887Z,99986.30
2022-10-01T15:00:59.247Z,99980.91
2022-10-01T15:03:38.655Z,99977.82
2022-10-01T15:06:14.784Z,99977.39
2022-10-01T15:08:47.958Z,99981.89
2022-10-01T15:11:21.210Z,99977.96
2022-10-01T15:13:54.737Z,99972.51
2022-10-01T15:16:26.082Z,99967.86
2022-10-01T15:18:59.479Z,99966.57
2022-10-01T15:21:36.106Z,99964.16
2022-10-01T15:24:12.218Z,99963.19
2022-10-01T15:26:44.399Z,99960.99
2022-10-01T15:29:18.423Z,99957.02
2022-10-01T15:31:53.226Z,99952.27
2022-10-01T15:34:27.154Z,99947.34
2022-10-01T15:36:57.449Z,99942.60
2022-10-01T15:39:33.394Z,99934.91
2022-10-01T15:42:09.659Z,99929.14
2022-10-01T15:44:45.644Z,99927.87
2022-10-01T15:47:29.375Z,99924.86
2022-10-01T15:50:19.542Z,99924.11
2022-10-01T15:53:00.248Z,99922.91
2022-10-01T15:55:36.553Z,99924.08
2022-10-01T15:58:15.214Z,99928.48
2022-10-01T16:00:57.945Z,99919.90
2022-10-01T16:03:33.629Z,99920.53
2022-10-01T16:06:07.200Z,99918.71
2022-10-01T16:08:50.456Z,99920.93
2022-10-01T16:11:27.822Z,99917.45
2022-10-01T16:14:29.936Z,99914.17
2022-10-01T16:17:33.839Z,99910.59
2022-10-01T16:20:43.920Z,99902.98
2022-10-01T16:23:43.960Z,99896.59
2022-10-01T16:26:34.997Z,99888.12
2022-10-01T16:29:14.339Z,99883.23
2022-10-01T16:31:46.731Z,99873.89
2022-10-01T16:34:19.932Z,99874.00
2022-10-01T16:36:52.254Z,99868.80
2022-10-01T16:39:25.375Z,99862.00
2022-10-01T16:42:22.165Z,99861.92
2022-10-01T16:44:48.928Z,99863.42
2022-10-01T16:47:20.545Z,99861.81
2022-10-01T16:49:53.466Z,99861.16
2022-10-01T16:52:25.072Z,99860.30
2022-10-01T16:54:57.103Z,99857.92
2022-10-01T16:57:28.962Z,99855.56
2022-10-01T17:00:00.611Z,99854.44
2022-10-01T17:02:32.363Z,99851.46
2022-10-01T17:05:04.182Z,99853.30
2022-10-01T17:07:35.832Z,99850.86
2022-10-01T17:10:08.667Z,99854.16
2022-10-01T17:12:40.837Z,99846.75
2022-10-01T17:15:17.341Z,99844.11
2022-10-01T17:17:49.327Z,99843.08
2022-10-01T17:20:21.526Z,99836.52
2022-10-01T17:22:53.911Z,99829.73
2022-10-01T17:25:28.050Z,99826.04
2022-10-01T17:28:01.308Z,99819.80
2022-10-01T17:30:33.791Z,99811.92
2022-10-01T17:33:05.905Z,99809.81
2022-10-01T17:35:38.434Z,99818.76
2022-10-01T17:38:11.952Z,99814.41
2022-10-01T17:40:45.301Z,99810.54
2022-10-01T17:43:18.394Z,99815.52
2022-10-01T17:45:57.964Z,99818.48
2022-10-01T17:48:30.475Z,99811.84
2022-10-01T17:51:05.799Z,99816.27
2022-10-01T17:53:42.483Z,99815.79
2022-10-01T17:56:16.365Z,99822.63
2022-10-01T17:58:48.177Z,99822.52
2022-10-01T18:01:22.291Z,99821.60
2022-10-01T18:03:57.657Z,99822.02
2022-10-01T18:06:29.826Z,99818.11
2022-10-01T18:09:02.008Z,99812.66
2022-10-01T18:11:34.391Z,99810.02
2022-10-01T18:14:07.820Z,99805.09
2022-10-01T18:16:40.213Z,99801.67
2022-10-01T18:22:13.572Z,99801.04
2022-10-01T18:24:46.187Z,99803.00
2022-10-01T18:27:17.942Z,99798.06
2022-10-01T18:29:49.679Z,99797.05
2022-10-01T18:32:24.104Z,99794.49
2022-10-01T18:34:57.977Z,99785.39
2022-10-01T18:37:39.848Z,99781.89
2022-10-01T18:40:16.911Z,99783.20
2022-10-01T18:42:52.943Z,99775.98
2022-10-01T18:45:35.170Z,99777.08
2022-10-01T18:48:17.680Z,99772.70
2022-10-01T18:50:53.717Z,99768.68
2022-10-01T18:53:34.891Z,99767.52
2022-10-01T18:56:27.598Z,99769.77
2022-10-01T18:59:19.357Z,99771.33
2022-10-01T19:02:00.662Z,99767.75
2022-10-01T19:04:49.361Z,99766.55
2022-10-01T19:07:32.428Z,99764.44
2022-10-01T19:10:11.118Z,99765.92
2022-10-01T19:12:54.824Z,99762.90
2022-10-01T19:15:34.775Z,99759.70
2022-10-01T19:18:17.444Z,99762.20
2022-10-01T19:20:55.521Z,99758.45
2022-10-01T19:24:01.043Z,99759.95
2022-10-01T19:26:37.779Z,99752.09
2022-10-01T19:29:22.468Z,99751.07
2022-10-01T19:31:56.701Z,99749.66
2022-10-01T19:34:31.483Z,99745.05
2022-10-01T19:37:08.302Z,99747.11
2022-10-01T19:39:42.582Z,99747.27
2022-10-01T19:42:17.789Z,99740.27
2022-10-01T19:44:55.773Z,99737.98
2022-10-01T19:47:36.336Z,99733.09
2022-10-01T19:50:21.281Z,99730.98
2022-10-01T19:52:55.229Z,99728.99
2022-10-01T19:55:27.722Z,99727.95
2022-10-01T19:57:59.633Z,99724.15
2022-10-01T20:00:31.844Z,99724.06
2022-10-01T20:03:09.070Z,99720.00
2022-10-01T20:05:45.986Z,99721.96
2022-10-01T20:08:25.089Z,99727.02
2022-10-01T20:10:58.673Z,99725.48
2022-10-01T20:13:41.981Z,99729.71
2022-10-01T20:16:19.611Z,99724.88
2022-10-01T20:18:57.445Z,99729.39
2022-10-01T20:21:45.574Z,99728.99
2022-10-01T20:24:28.961Z,99729.80
2022-10-01T20:27:11.730Z,99735.73
2022-10-01T20:29:50.530Z,99735.83
2022-10-01T20:32:25.994Z,99731.73
2022-10-01T20:35:07.538Z,99730.38
2022-10-01T20:37:48.230Z,99730.83
2022-10-01T20:40:25.227Z,99727.27
2022-10-01T20:43:04.350Z,99729.52
2022-10-01T20:45:37.429Z,99722.92
2022-10-01T20:48:14.931Z,99720.40
2022-10-01T20:50:48.947Z,99721.15
2022-10-01T20:53:26.949Z,99720.48
2022-10-01T20:56:04.274Z,99718.17
2022-10-01T20:58:44.671Z,99713.42
2022-10-01T21:01:20.629Z,99707.66
2022-10-01T21:03:57.027Z,99709.81
2022-10-01T21:06:35.577Z,99706.00
2022-10-01T21:09:15.842Z,99706.59
2022-10-01T21:11:49.322Z,99702.98
2022-10-01T21:14:26.791Z,99703.55
2022-10-01T21:17:13.035Z,99698.30
2022-10-01T21:19:54.869Z,99705.25
2022-10-01T21:22:38.832Z,99708.56
2022-10-01T21:25:16.306Z,99735.23
2022-10-01T21:31:20.969Z,99752.54
2022-10-01T21:33:54.240Z,99756.73
2022-10-01T21:36:31.145Z,99760.33
2022-10-01T21:39:05.586Z,99763.62
2022-10-01T21:41:42.975Z,99763.38
2022-10-01T21:45:00.226Z,99761.91
2022-10-01T21:47:36.275Z,99758.39
2022-10-01T21:50:09.987Z,99760.71
2022-10-01T21:52:46.563Z,99759.62
2022-10-01T21:55:29.562Z,99760.63
2022-10-01T21:58:07.658Z,99761.13
2022-10-01T22:00:37.905Z,99757.15
2022-10-01T22:03:18.583Z,99755.03
2022-10-01T22:05:58.288Z,99759.54
2022-10-01T22:08:39.878Z,99757.75
2022-10-01T22:11:12.559Z,99757.59
2022-10-01T22:13:47.313Z,99755.07
2022-10-01T22:16:22.537Z,99755.61
2022-10-01T22:18:53.861Z,99760.20
2022-10-01T22:21:30.671Z,99759.33
2022-10-01T22:24:07.468Z,99756.11
2022-10-01T22:26:40.223Z,99756.77
2022-10-01T22:29:15.401Z,99758.77
2022-10-01T22:31:45.979Z,99755.84
2022-10-01T22:34:17.618Z,99757.52
2022-10-01T22:36:48.977Z,99757.41
2022-10-01T22:39:21.478Z,99761.27
2022-10-01T22:41:52.947Z,99761.64
2022-10-01T22:44:23.385Z,99763.38
2022-10-01T22:47:13.581Z,99763.84
2022-10-01T22:49:59.908Z,99766.50
2022-10-01T22:52:39.530Z,99771.21
2022-10-01T22:55:28.492Z,99773.81
2022-10-01T22:58:08.846Z,99778.62
2022-10-01T23:00:49.319Z,99783.68
2022-10-01T23:03:23.091Z,99783.83
2022-10-01T23:06:00.363Z,99781.70
2022-10-01T23:08:32.945Z,99785.29
2022-10-01T23:11:11.539Z,99785.67
2022-10-01T23:13:46.962Z,99784.52
2022-10-01T23:16:23.185Z,99786.83
2022-10-01T23:19:05.371Z,99783.06
2022-10-01T23:21:41.637Z,99786.86
2022-10-01T23:24:27.438Z,99786.65
2022-10-01T23:27:06.613Z,99788.52
2022-10-01T23:29:53.178Z,99788.23
2022-10-01T23:32:31.691Z,99787.70
2022-10-01T23:35:03.745Z,99785.48
2022-10-01T23:37:47.006Z,99789.82
2022-10-01T23:40:17.622Z,99792.38
2022-10-01T23:42:52.659Z,99791.72
2022-10-01T23:45:23.879Z,99792.30
2022-10-01T23:48:00.409Z,99794.64
2022-10-01T23:50:40.460Z,99793.66
2022-10-01T23:53:18.734Z,99793.91
2022-10-01T23:56:10.925Z,99792.66
2022-10-01T23:58:48.492Z,99796.39
